sensor_id;sensor_type;location;lat;lon;timestamp;P1;durP1;ratioP1;P2;durP2;ratioP2
66478;SDS011;53294;47.912;13.526;2023-01-08T00:01:15;6.20;;;2.67;;
66478;SDS011;53294;47.912;13.526;2023-01-08T00:03:42;4.88;;;3.17;;
66478;SDS011;53294;47.912;13.526;2023-01-08T00:06:11;6.03;;;3.55;;
66478;SDS011;53294;47.912;13.526;2023-01-08T00:08:40;4.32;;;2.75;;
66478;SDS011;53294;47.912;13.526;2023-01-08T00:11:07;4.75;;;2.75;;
66478;SDS011;53294;47.912;13.526;2023-01-08T00:13:34;4.65;;;2.75;;
66478;SDS011;53294;47.912;13.526;2023-01-08T00:16:05;6.72;;;3.42;;
66478;SDS011;53294;47.912;13.526;2023-01-08T00:18:34;6.15;;;3.83;;
66478;SDS011;53294;47.912;13.526;2023-01-08T00:21:01;6.97;;;3.90;;
66478;SDS011;53294;47.912;13.526;2023-01-08T00:23:28;8.70;;;4.25;;
66478;SDS011;53294;47.912;13.526;2023-01-08T00:25:55;5.85;;;3.75;;
66478;SDS011;53294;47.912;13.526;2023-01-08T00:28:22;5.07;;;3.30;;
66478;SDS011;53294;47.912;13.526;2023-01-08T00:30:48;7.22;;;3.75;;
66478;SDS011;53294;47.912;13.526;2023-01-08T00:33:15;8.00;;;3.63;;
66478;SDS011;53294;47.912;13.526;2023-01-08T00:35:42;6.85;;;4.22;;
66478;SDS011;53294;47.912;13.526;2023-01-08T00:38:09;4.82;;;3.13;;
66478;SDS011;53294;47.912;13.526;2023-01-08T00:40:36;4.55;;;2.92;;
66478;SDS011;53294;47.912;13.526;2023-01-08T00:43:03;4.78;;;3.15;;
66478;SDS011;53294;47.912;13.526;2023-01-08T00:45:30;3.55;;;2.50;;
66478;SDS011;53294;47.912;13.526;2023-01-08T00:47:57;5.70;;;3.03;;
66478;SDS011;53294;47.912;13.526;2023-01-08T00:50:24;4.03;;;2.85;;
66478;SDS011;53294;47.912;13.526;2023-01-08T00:52:52;4.90;;;3.13;;
66478;SDS011;53294;47.912;13.526;2023-01-08T00:55:18;4.95;;;3.35;;
66478;SDS011;53294;47.912;13.526;2023-01-08T00:57:45;5.18;;;3.30;;
66478;SDS011;53294;47.912;13.526;2023-01-08T01:00:13;5.13;;;3.30;;
66478;SDS011;53294;47.912;13.526;2023-01-08T01:02:40;5.40;;;3.38;;
66478;SDS011;53294;47.912;13.526;2023-01-08T01:05:08;6.15;;;3.88;;
66478;SDS011;53294;47.912;13.526;2023-01-08T01:07:36;4.50;;;3.08;;
66478;SDS011;53294;47.912;13.526;2023-01-08T01:10:02;5.32;;;3.20;;
66478;SDS011;53294;47.912;13.526;2023-01-08T01:12:29;5.28;;;3.42;;
66478;SDS011;53294;47.912;13.526;2023-01-08T01:14:56;4.05;;;3.17;;
66478;SDS011;53294;47.912;13.526;2023-01-08T01:17:23;6.82;;;3.65;;
66478;SDS011;53294;47.912;13.526;2023-01-08T01:19:50;6.18;;;3.78;;
66478;SDS011;53294;47.912;13.526;2023-01-08T01:22:16;5.28;;;3.20;;
66478;SDS011;53294;47.912;13.526;2023-01-08T01:24:43;5.68;;;3.35;;
66478;SDS011;53294;47.912;13.526;2023-01-08T01:27:10;6.07;;;4.15;;
66478;SDS011;53294;47.912;13.526;2023-01-08T01:29:36;7.00;;;3.60;;
66478;SDS011;53294;47.912;13.526;2023-01-08T01:32:03;5.13;;;2.97;;
66478;SDS011;53294;47.912;13.526;2023-01-08T01:34:31;5.05;;;3.10;;
66478;SDS011;53294;47.912;13.526;2023-01-08T01:36:58;5.00;;;2.90;;
66478;SDS011;53294;47.912;13.526;2023-01-08T01:39:24;5.63;;;3.25;;
66478;SDS011;53294;47.912;13.526;2023-01-08T01:41:51;6.15;;;3.40;;
66478;SDS011;53294;47.912;13.526;2023-01-08T01:44:35;4.50;;;3.22;;
66478;SDS011;53294;47.912;13.526;2023-01-08T01:50:07;4.85;;;3.10;;
66478;SDS011;53294;47.912;13.526;2023-01-08T01:52:44;5.60;;;3.08;;
66478;SDS011;53294;47.912;13.526;2023-01-08T01:55:15;5.75;;;3.40;;
66478;SDS011;53294;47.912;13.526;2023-01-08T01:57:43;5.50;;;3.45;;
66478;SDS011;53294;47.912;13.526;2023-01-08T02:00:16;5.95;;;3.63;;
66478;SDS011;53294;47.912;13.526;2023-01-08T02:02:43;7.35;;;4.53;;
66478;SDS011;53294;47.912;13.526;2023-01-08T02:05:10;5.13;;;3.30;;
66478;SDS011;53294;47.912;13.526;2023-01-08T02:10:10;5.95;;;3.90;;
66478;SDS011;53294;47.912;13.526;2023-01-08T02:12:56;4.65;;;3.10;;
66478;SDS011;53294;47.912;13.526;2023-01-08T02:15:32;4.55;;;3.10;;
66478;SDS011;53294;47.912;13.526;2023-01-08T02:20:54;4.90;;;2.92;;
66478;SDS011;53294;47.912;13.526;2023-01-08T02:23:47;4.22;;;2.88;;
66478;SDS011;53294;47.912;13.526;2023-01-08T02:26:33;4.15;;;3.00;;
66478;SDS011;53294;47.912;13.526;2023-01-08T02:29:06;3.58;;;2.50;;
66478;SDS011;53294;47.912;13.526;2023-01-08T02:31:37;4.75;;;2.60;;
66478;SDS011;53294;47.912;13.526;2023-01-08T02:34:06;5.13;;;3.28;;
66478;SDS011;53294;47.912;13.526;2023-01-08T02:45:05;6.82;;;2.67;;
66478;SDS011;53294;47.912;13.526;2023-01-08T02:47:53;5.43;;;3.15;;
66478;SDS011;53294;47.912;13.526;2023-01-08T02:50:27;4.93;;;3.60;;
66478;SDS011;53294;47.912;13.526;2023-01-08T02:53:30;6.10;;;3.15;;
66478;SDS011;53294;47.912;13.526;2023-01-08T02:55:51;3.92;;;2.60;;
66478;SDS011;53294;47.912;13.526;2023-01-08T02:58:21;3.58;;;2.50;;
66478;SDS011;53294;47.912;13.526;2023-01-08T03:00:49;4.15;;;3.08;;
66478;SDS011;53294;47.912;13.526;2023-01-08T03:03:26;5.10;;;3.20;;
66478;SDS011;53294;47.912;13.526;2023-01-08T03:05:59;4.97;;;2.83;;
66478;SDS011;53294;47.912;13.526;2023-01-08T03:08:28;4.25;;;3.15;;
66478;SDS011;53294;47.912;13.526;2023-01-08T03:10:59;4.32;;;2.58;;
66478;SDS011;53294;47.912;13.526;2023-01-08T03:16:09;4.13;;;2.35;;
66478;SDS011;53294;47.912;13.526;2023-01-08T03:18:44;4.85;;;2.17;;
66478;SDS011;53294;47.912;13.526;2023-01-08T03:21:14;4.07;;;2.35;;
66478;SDS011;53294;47.912;13.526;2023-01-08T03:23:43;3.88;;;2.53;;
66478;SDS011;53294;47.912;13.526;2023-01-08T03:26:12;4.40;;;2.80;;
66478;SDS011;53294;47.912;13.526;2023-01-08T03:28:45;2.92;;;2.00;;
66478;SDS011;53294;47.912;13.526;2023-01-08T03:31:15;3.88;;;2.30;;
66478;SDS011;53294;47.912;13.526;2023-01-08T03:33:44;3.75;;;2.10;;
66478;SDS011;53294;47.912;13.526;2023-01-08T03:36:17;3.65;;;2.33;;
66478;SDS011;53294;47.912;13.526;2023-01-08T03:38:47;3.63;;;2.22;;
66478;SDS011;53294;47.912;13.526;2023-01-08T03:41:21;2.85;;;2.10;;
66478;SDS011;53294;47.912;13.526;2023-01-08T03:43:51;3.33;;;2.10;;
66478;SDS011;53294;47.912;13.526;2023-01-08T03:46:19;4.00;;;2.63;;
66478;SDS011;53294;47.912;13.526;2023-01-08T03:48:47;3.95;;;2.38;;
66478;SDS011;53294;47.912;13.526;2023-01-08T03:51:15;4.15;;;2.72;;
66478;SDS011;53294;47.912;13.526;2023-01-08T03:53:44;3.85;;;2.40;;
66478;SDS011;53294;47.912;13.526;2023-01-08T03:56:12;3.83;;;2.40;;
66478;SDS011;53294;47.912;13.526;2023-01-08T03:58:39;5.07;;;2.85;;
66478;SDS011;53294;47.912;13.526;2023-01-08T04:01:06;3.25;;;2.10;;
66478;SDS011;53294;47.912;13.526;2023-01-08T04:03:32;3.20;;;2.13;;
66478;SDS011;53294;47.912;13.526;2023-01-08T04:05:59;2.92;;;1.88;;
66478;SDS011;53294;47.912;13.526;2023-01-08T04:08:26;3.25;;;2.10;;
66478;SDS011;53294;47.912;13.526;2023-01-08T04:10:52;3.35;;;1.88;;
66478;SDS011;53294;47.912;13.526;2023-01-08T04:13:19;5.05;;;2.08;;
66478;SDS011;53294;47.912;13.526;2023-01-08T04:15:49;4.50;;;2.33;;
66478;SDS011;53294;47.912;13.526;2023-01-08T04:18:17;3.50;;;2.17;;
66478;SDS011;53294;47.912;13.526;2023-01-08T04:20:44;4.68;;;2.35;;
66478;SDS011;53294;47.912;13.526;2023-01-08T04:23:14;3.47;;;1.85;;
66478;SDS011;53294;47.912;13.526;2023-01-08T04:25:41;3.20;;;2.00;;
66478;SDS011;53294;47.912;13.526;2023-01-08T04:28:08;3.08;;;1.95;;
66478;SDS011;53294;47.912;13.526;2023-01-08T04:30:35;3.28;;;1.90;;
66478;SDS011;53294;47.912;13.526;2023-01-08T04:33:02;3.85;;;2.10;;
66478;SDS011;53294;47.912;13.526;2023-01-08T04:35:29;3.25;;;1.85;;
66478;SDS011;53294;47.912;13.526;2023-01-08T04:37:56;3.72;;;2.25;;
66478;SDS011;53294;47.912;13.526;2023-01-08T04:40:22;2.85;;;1.90;;
66478;SDS011;53294;47.912;13.526;2023-01-08T04:42:49;3.63;;;2.20;;
66478;SDS011;53294;47.912;13.526;2023-01-08T04:45:15;3.75;;;2.17;;
66478;SDS011;53294;47.912;13.526;2023-01-08T04:47:42;2.80;;;1.95;;
66478;SDS011;53294;47.912;13.526;2023-01-08T04:50:09;2.53;;;1.85;;
66478;SDS011;53294;47.912;13.526;2023-01-08T04:52:35;3.53;;;2.20;;
66478;SDS011;53294;47.912;13.526;2023-01-08T04:55:02;3.25;;;2.45;;
66478;SDS011;53294;47.912;13.526;2023-01-08T04:57:29;5.13;;;2.25;;
66478;SDS011;53294;47.912;13.526;2023-01-08T04:59:56;3.67;;;2.65;;
66478;SDS011;53294;47.912;13.526;2023-01-08T05:02:22;4.38;;;2.38;;
66478;SDS011;53294;47.912;13.526;2023-01-08T05:04:49;4.00;;;2.38;;
66478;SDS011;53294;47.912;13.526;2023-01-08T05:07:16;3.47;;;2.20;;
66478;SDS011;53294;47.912;13.526;2023-01-08T05:09:42;2.42;;;1.90;;
66478;SDS011;53294;47.912;13.526;2023-01-08T05:12:09;3.92;;;2.20;;
66478;SDS011;53294;47.912;13.526;2023-01-08T05:14:35;5.60;;;2.95;;
66478;SDS011;53294;47.912;13.526;2023-01-08T05:17:02;4.28;;;2.53;;
66478;SDS011;53294;47.912;13.526;2023-01-08T05:19:29;3.47;;;2.35;;
66478;SDS011;53294;47.912;13.526;2023-01-08T05:21:55;3.35;;;2.00;;
66478;SDS011;53294;47.912;13.526;2023-01-08T05:24:23;6.20;;;3.47;;
66478;SDS011;53294;47.912;13.526;2023-01-08T05:26:49;6.20;;;3.20;;
66478;SDS011;53294;47.912;13.526;2023-01-08T05:29:16;4.53;;;3.15;;
66478;SDS011;53294;47.912;13.526;2023-01-08T05:31:43;6.72;;;3.80;;
66478;SDS011;53294;47.912;13.526;2023-01-08T05:34:10;9.27;;;3.50;;
66478;SDS011;53294;47.912;13.526;2023-01-08T05:36:37;6.25;;;3.42;;
66478;SDS011;53294;47.912;13.526;2023-01-08T05:39:04;5.55;;;3.00;;
66478;SDS011;53294;47.912;13.526;2023-01-08T05:41:30;4.82;;;3.00;;
66478;SDS011;53294;47.912;13.526;2023-01-08T05:43:57;6.03;;;3.28;;
66478;SDS011;53294;47.912;13.526;2023-01-08T05:46:23;6.00;;;3.50;;
66478;SDS011;53294;47.912;13.526;2023-01-08T05:48:50;6.53;;;3.15;;
66478;SDS011;53294;47.912;13.526;2023-01-08T05:51:17;6.70;;;4.03;;
66478;SDS011;53294;47.912;13.526;2023-01-08T05:53:43;7.95;;;3.50;;
66478;SDS011;53294;47.912;13.526;2023-01-08T05:56:10;6.75;;;3.38;;
66478;SDS011;53294;47.912;13.526;2023-01-08T05:58:37;4.97;;;2.88;;
66478;SDS011;53294;47.912;13.526;2023-01-08T06:01:05;6.55;;;3.67;;
66478;SDS011;53294;47.912;13.526;2023-01-08T06:03:37;8.18;;;3.45;;
66478;SDS011;53294;47.912;13.526;2023-01-08T06:06:04;7.78;;;4.20;;
66478;SDS011;53294;47.912;13.526;2023-01-08T06:08:32;7.00;;;4.22;;
66478;SDS011;53294;47.912;13.526;2023-01-08T06:10:59;4.70;;;3.10;;
66478;SDS011;53294;47.912;13.526;2023-01-08T06:13:27;5.47;;;3.13;;
66478;SDS011;53294;47.912;13.526;2023-01-08T06:15:54;19.02;;;4.65;;
66478;SDS011;53294;47.912;13.526;2023-01-08T06:18:23;34.88;;;6.03;;
66478;SDS011;53294;47.912;13.526;2023-01-08T06:20:49;35.05;;;6.28;;
66478;SDS011;53294;47.912;13.526;2023-01-08T06:23:16;33.55;;;5.57;;
66478;SDS011;53294;47.912;13.526;2023-01-08T06:25:43;34.22;;;5.63;;
66478;SDS011;53294;47.912;13.526;2023-01-08T06:28:09;5.68;;;3.30;;
66478;SDS011;53294;47.912;13.526;2023-01-08T06:30:36;34.22;;;5.03;;
66478;SDS011;53294;47.912;13.526;2023-01-08T06:33:03;6.70;;;3.60;;
66478;SDS011;53294;47.912;13.526;2023-01-08T06:35:29;5.22;;;3.35;;
66478;SDS011;53294;47.912;13.526;2023-01-08T06:37:56;6.90;;;3.40;;
66478;SDS011;53294;47.912;13.526;2023-01-08T06:40:23;4.57;;;2.90;;
66478;SDS011;53294;47.912;13.526;2023-01-08T06:42:49;4.82;;;3.08;;
66478;SDS011;53294;47.912;13.526;2023-01-08T06:45:16;5.93;;;3.08;;
66478;SDS011;53294;47.912;13.526;2023-01-08T06:47:43;6.43;;;3.03;;
66478;SDS011;53294;47.912;13.526;2023-01-08T06:50:09;5.63;;;3.33;;
66478;SDS011;53294;47.912;13.526;2023-01-08T06:52:37;6.18;;;3.20;;
66478;SDS011;53294;47.912;13.526;2023-01-08T06:55:04;4.80;;;2.90;;
66478;SDS011;53294;47.912;13.526;2023-01-08T06:57:31;6.32;;;3.50;;
66478;SDS011;53294;47.912;13.526;2023-01-08T06:59:58;5.53;;;3.15;;
66478;SDS011;53294;47.912;13.526;2023-01-08T07:02:25;5.00;;;3.20;;
66478;SDS011;53294;47.912;13.526;2023-01-08T07:04:52;5.15;;;3.30;;
66478;SDS011;53294;47.912;13.526;2023-01-08T07:07:18;23.15;;;8.20;;
66478;SDS011;53294;47.912;13.526;2023-01-08T07:09:45;20.10;;;5.38;;
66478;SDS011;53294;47.912;13.526;2023-01-08T07:12:12;5.22;;;3.53;;
66478;SDS011;53294;47.912;13.526;2023-01-08T07:14:39;6.28;;;3.85;;
66478;SDS011;53294;47.912;13.526;2023-01-08T07:17:06;8.23;;;3.38;;
66478;SDS011;53294;47.912;13.526;2023-01-08T07:19:33;5.90;;;3.67;;
66478;SDS011;53294;47.912;13.526;2023-01-08T07:22:00;5.65;;;3.35;;
66478;SDS011;53294;47.912;13.526;2023-01-08T07:24:26;5.50;;;3.20;;
66478;SDS011;53294;47.912;13.526;2023-01-08T07:26:53;6.65;;;3.78;;
66478;SDS011;53294;47.912;13.526;2023-01-08T07:29:20;5.80;;;3.30;;
66478;SDS011;53294;47.912;13.526;2023-01-08T07:31:46;6.97;;;4.07;;
66478;SDS011;53294;47.912;13.526;2023-01-08T07:34:13;6.00;;;3.42;;
66478;SDS011;53294;47.912;13.526;2023-01-08T07:36:40;7.20;;;3.95;;
66478;SDS011;53294;47.912;13.526;2023-01-08T07:39:07;6.28;;;3.55;;
66478;SDS011;53294;47.912;13.526;2023-01-08T07:41:33;7.80;;;3.65;;
66478;SDS011;53294;47.912;13.526;2023-01-08T07:44:00;6.93;;;4.00;;
66478;SDS011;53294;47.912;13.526;2023-01-08T07:46:27;9.85;;;4.05;;
66478;SDS011;53294;47.912;13.526;2023-01-08T07:48:54;7.10;;;4.18;;
66478;SDS011;53294;47.912;13.526;2023-01-08T07:51:21;33.92;;;6.70;;
66478;SDS011;53294;47.912;13.526;2023-01-08T07:53:48;9.85;;;5.80;;
66478;SDS011;53294;47.912;13.526;2023-01-08T07:56:16;15.32;;;5.40;;
66478;SDS011;53294;47.912;13.526;2023-01-08T07:58:43;23.75;;;6.25;;
66478;SDS011;53294;47.912;13.526;2023-01-08T08:01:09;28.35;;;5.93;;
66478;SDS011;53294;47.912;13.526;2023-01-08T08:03:37;40.83;;;5.75;;
66478;SDS011;53294;47.912;13.526;2023-01-08T08:06:04;17.48;;;4.47;;
66478;SDS011;53294;47.912;13.526;2023-01-08T08:08:31;4.80;;;3.10;;
66478;SDS011;53294;47.912;13.526;2023-01-08T08:10:58;6.40;;;3.80;;
66478;SDS011;53294;47.912;13.526;2023-01-08T08:13:24;7.63;;;3.30;;
66478;SDS011;53294;47.912;13.526;2023-01-08T08:15:51;6.50;;;3.72;;
66478;SDS011;53294;47.912;13.526;2023-01-08T08:18:18;14.32;;;4.60;;
66478;SDS011;53294;47.912;13.526;2023-01-08T08:20:44;15.82;;;4.93;;
66478;SDS011;53294;47.912;13.526;2023-01-08T08:23:12;8.30;;;4.15;;
66478;SDS011;53294;47.912;13.526;2023-01-08T08:25:40;21.77;;;5.60;;
66478;SDS011;53294;47.912;13.526;2023-01-08T08:28:08;7.90;;;4.47;;
66478;SDS011;53294;47.912;13.526;2023-01-08T08:30:37;6.43;;;3.80;;
66478;SDS011;53294;47.912;13.526;2023-01-08T08:33:07;11.30;;;4.53;;
66478;SDS011;53294;47.912;13.526;2023-01-08T08:35:35;11.88;;;4.65;;
66478;SDS011;53294;47.912;13.526;2023-01-08T08:38:02;7.95;;;4.03;;
66478;SDS011;53294;47.912;13.526;2023-01-08T08:40:30;5.43;;;3.22;;
66478;SDS011;53294;47.912;13.526;2023-01-08T08:43:01;7.43;;;4.25;;
66478;SDS011;53294;47.912;13.526;2023-01-08T08:45:29;5.77;;;3.73;;
66478;SDS011;53294;47.912;13.526;2023-01-08T08:47:56;10.07;;;4.22;;
66478;SDS011;53294;47.912;13.526;2023-01-08T08:50:22;8.63;;;3.85;;
66478;SDS011;53294;47.912;13.526;2023-01-08T08:52:49;7.75;;;4.00;;
66478;SDS011;53294;47.912;13.526;2023-01-08T08:55:16;10.80;;;4.03;;
66478;SDS011;53294;47.912;13.526;2023-01-08T08:57:44;8.63;;;4.00;;
66478;SDS011;53294;47.912;13.526;2023-01-08T09:00:12;6.50;;;4.43;;
66478;SDS011;53294;47.912;13.526;2023-01-08T09:02:39;6.68;;;4.10;;
66478;SDS011;53294;47.912;13.526;2023-01-08T09:05:06;6.20;;;3.80;;
66478;SDS011;53294;47.912;13.526;2023-01-08T09:07:33;8.02;;;4.50;;
66478;SDS011;53294;47.912;13.526;2023-01-08T09:10:00;6.57;;;4.18;;
66478;SDS011;53294;47.912;13.526;2023-01-08T09:12:26;7.15;;;4.22;;
66478;SDS011;53294;47.912;13.526;2023-01-08T09:14:53;7.97;;;4.85;;
66478;SDS011;53294;47.912;13.526;2023-01-08T09:17:22;10.30;;;4.45;;
66478;SDS011;53294;47.912;13.526;2023-01-08T09:19:50;10.13;;;5.60;;
66478;SDS011;53294;47.912;13.526;2023-01-08T09:22:17;11.32;;;6.38;;
66478;SDS011;53294;47.912;13.526;2023-01-08T09:24:44;9.20;;;5.03;;
66478;SDS011;53294;47.912;13.526;2023-01-08T09:27:10;9.40;;;5.22;;
66478;SDS011;53294;47.912;13.526;2023-01-08T09:29:37;6.80;;;4.60;;
66478;SDS011;53294;47.912;13.526;2023-01-08T09:32:05;8.65;;;4.75;;
66478;SDS011;53294;47.912;13.526;2023-01-08T09:34:32;8.18;;;4.63;;
66478;SDS011;53294;47.912;13.526;2023-01-08T09:37:01;7.35;;;4.55;;
66478;SDS011;53294;47.912;13.526;2023-01-08T09:39:29;7.20;;;4.57;;
66478;SDS011;53294;47.912;13.526;2023-01-08T09:41:56;7.10;;;4.43;;
66478;SDS011;53294;47.912;13.526;2023-01-08T09:44:27;7.45;;;4.65;;
66478;SDS011;53294;47.912;13.526;2023-01-08T09:46:56;8.50;;;4.53;;
66478;SDS011;53294;47.912;13.526;2023-01-08T09:49:25;6.65;;;4.22;;
66478;SDS011;53294;47.912;13.526;2023-01-08T09:52:01;25.50;;;5.68;;
66478;SDS011;53294;47.912;13.526;2023-01-08T09:54:29;9.73;;;4.40;;
66478;SDS011;53294;47.912;13.526;2023-01-08T09:56:55;9.80;;;4.07;;
66478;SDS011;53294;47.912;13.526;2023-01-08T09:59:25;6.38;;;4.03;;
66478;SDS011;53294;47.912;13.526;2023-01-08T10:01:51;7.15;;;4.45;;
66478;SDS011;53294;47.912;13.526;2023-01-08T10:06:52;10.63;;;6.20;;
66478;SDS011;53294;47.912;13.526;2023-01-08T10:09:25;10.23;;;5.72;;
66478;SDS011;53294;47.912;13.526;2023-01-08T10:11:54;8.32;;;5.30;;
66478;SDS011;53294;47.912;13.526;2023-01-08T10:14:36;8.98;;;4.88;;
66478;SDS011;53294;47.912;13.526;2023-01-08T10:17:17;8.93;;;5.80;;
66478;SDS011;53294;47.912;13.526;2023-01-08T10:19:51;9.88;;;5.72;;
66478;SDS011;53294;47.912;13.526;2023-01-08T10:22:19;8.85;;;5.35;;
66478;SDS011;53294;47.912;13.526;2023-01-08T10:24:50;8.15;;;4.95;;
66478;SDS011;53294;47.912;13.526;2023-01-08T10:27:19;9.00;;;5.00;;
66478;SDS011;53294;47.912;13.526;2023-01-08T10:29:51;7.25;;;4.45;;
66478;SDS011;53294;47.912;13.526;2023-01-08T10:32:27;6.72;;;4.40;;
66478;SDS011;53294;47.912;13.526;2023-01-08T10:34:55;9.57;;;4.90;;
66478;SDS011;53294;47.912;13.526;2023-01-08T10:37:27;6.53;;;3.90;;
66478;SDS011;53294;47.912;13.526;2023-01-08T10:40:04;9.27;;;5.50;;
66478;SDS011;53294;47.912;13.526;2023-01-08T10:42:42;9.70;;;5.70;;
66478;SDS011;53294;47.912;13.526;2023-01-08T10:45:12;7.03;;;4.97;;
66478;SDS011;53294;47.912;13.526;2023-01-08T10:47:56;9.52;;;6.22;;
66478;SDS011;53294;47.912;13.526;2023-01-08T10:50:29;8.75;;;5.68;;
66478;SDS011;53294;47.912;13.526;2023-01-08T10:53:02;9.13;;;5.70;;
66478;SDS011;53294;47.912;13.526;2023-01-08T10:55:34;9.07;;;5.63;;
66478;SDS011;53294;47.912;13.526;2023-01-08T11:00:35;7.80;;;4.80;;
66478;SDS011;53294;47.912;13.526;2023-01-08T11:03:04;8.38;;;5.22;;
66478;SDS011;53294;47.912;13.526;2023-01-08T11:05:36;8.90;;;5.35;;
66478;SDS011;53294;47.912;13.526;2023-01-08T11:08:13;8.50;;;5.50;;
66478;SDS011;53294;47.912;13.526;2023-01-08T11:10:43;9.55;;;6.28;;
66478;SDS011;53294;47.912;13.526;2023-01-08T11:13:19;8.73;;;5.63;;
66478;SDS011;53294;47.912;13.526;2023-01-08T11:16:01;9.50;;;5.68;;
66478;SDS011;53294;47.912;13.526;2023-01-08T11:18:30;11.00;;;6.47;;
66478;SDS011;53294;47.912;13.526;2023-01-08T11:21:15;9.48;;;6.13;;
66478;SDS011;53294;47.912;13.526;2023-01-08T11:23:45;9.77;;;6.38;;
66478;SDS011;53294;47.912;13.526;2023-01-08T11:26:14;8.95;;;5.78;;
66478;SDS011;53294;47.912;13.526;2023-01-08T11:28:48;12.55;;;7.25;;
66478;SDS011;53294;47.912;13.526;2023-01-08T11:34:06;16.65;;;7.00;;
66478;SDS011;53294;47.912;13.526;2023-01-08T11:36:52;10.70;;;6.68;;
66478;SDS011;53294;47.912;13.526;2023-01-08T11:39:41;14.68;;;6.88;;
66478;SDS011;53294;47.912;13.526;2023-01-08T11:53:12;10.07;;;6.57;;
66478;SDS011;53294;47.912;13.526;2023-01-08T11:55:48;9.93;;;6.47;;
66478;SDS011;53294;47.912;13.526;2023-01-08T12:04:21;12.68;;;7.65;;
66478;SDS011;53294;47.912;13.526;2023-01-08T12:09:31;11.30;;;6.45;;
66478;SDS011;53294;47.912;13.526;2023-01-08T12:27:57;13.40;;;8.07;;
66478;SDS011;53294;47.912;13.526;2023-01-08T12:30:42;9.85;;;6.70;;
66478;SDS011;53294;47.912;13.526;2023-01-08T12:36:00;11.43;;;7.05;;
66478;SDS011;53294;47.912;13.526;2023-01-08T12:38:32;12.48;;;7.15;;
66478;SDS011;53294;47.912;13.526;2023-01-08T12:43:43;18.77;;;7.78;;
66478;SDS011;53294;47.912;13.526;2023-01-08T12:46:25;11.27;;;7.32;;
66478;SDS011;53294;47.912;13.526;2023-01-08T12:48:54;15.57;;;8.20;;
66478;SDS011;53294;47.912;13.526;2023-01-08T13:02:24;15.57;;;8.52;;
66478;SDS011;53294;47.912;13.526;2023-01-08T13:04:52;17.90;;;8.70;;
66478;SDS011;53294;47.912;13.526;2023-01-08T13:07:26;17.23;;;8.55;;
66478;SDS011;53294;47.912;13.526;2023-01-08T13:10:02;13.02;;;8.45;;
66478;SDS011;53294;47.912;13.526;2023-01-08T13:12:35;14.82;;;8.10;;
66478;SDS011;53294;47.912;13.526;2023-01-08T13:15:05;13.52;;;7.85;;
66478;SDS011;53294;47.912;13.526;2023-01-08T13:17:33;12.23;;;7.60;;
66478;SDS011;53294;47.912;13.526;2023-01-08T13:20:05;14.77;;;8.60;;
66478;SDS011;53294;47.912;13.526;2023-01-08T13:22:34;14.13;;;8.45;;
66478;SDS011;53294;47.912;13.526;2023-01-08T13:27:40;15.57;;;8.38;;
66478;SDS011;53294;47.912;13.526;2023-01-08T13:36:06;14.93;;;9.65;;
66478;SDS011;53294;47.912;13.526;2023-01-08T13:38:38;13.23;;;8.00;;
66478;SDS011;53294;47.912;13.526;2023-01-08T13:44:38;11.25;;;7.53;;
66478;SDS011;53294;47.912;13.526;2023-01-08T13:46:55;11.18;;;7.10;;
66478;SDS011;53294;47.912;13.526;2023-01-08T13:54:57;9.77;;;5.90;;
66478;SDS011;53294;47.912;13.526;2023-01-08T13:57:29;9.00;;;5.75;;
66478;SDS011;53294;47.912;13.526;2023-01-08T14:00:03;9.38;;;6.00;;
66478;SDS011;53294;47.912;13.526;2023-01-08T14:02:33;10.30;;;6.20;;
66478;SDS011;53294;47.912;13.526;2023-01-08T14:05:29;9.70;;;6.00;;
66478;SDS011;53294;47.912;13.526;2023-01-08T14:08:00;8.23;;;5.38;;
66478;SDS011;53294;47.912;13.526;2023-01-08T14:10:27;8.95;;;5.75;;
66478;SDS011;53294;47.912;13.526;2023-01-08T14:13:12;9.40;;;6.25;;
66478;SDS011;53294;47.912;13.526;2023-01-08T14:15:41;9.65;;;6.10;;
66478;SDS011;53294;47.912;13.526;2023-01-08T14:18:10;11.23;;;6.75;;
66478;SDS011;53294;47.912;13.526;2023-01-08T14:20:39;9.48;;;6.30;;
66478;SDS011;53294;47.912;13.526;2023-01-08T14:23:25;9.90;;;6.07;;
66478;SDS011;53294;47.912;13.526;2023-01-08T14:25:54;8.73;;;5.90;;
66478;SDS011;53294;47.912;13.526;2023-01-08T14:28:22;7.68;;;5.20;;
66478;SDS011;53294;47.912;13.526;2023-01-08T14:30:53;9.27;;;5.80;;
66478;SDS011;53294;47.912;13.526;2023-01-08T14:36:04;9.50;;;6.00;;
66478;SDS011;53294;47.912;13.526;2023-01-08T14:38:33;29.15;;;17.40;;
66478;SDS011;53294;47.912;13.526;2023-01-08T14:41:00;19.88;;;12.18;;
66478;SDS011;53294;47.912;13.526;2023-01-08T14:43:34;17.00;;;9.95;;
66478;SDS011;53294;47.912;13.526;2023-01-08T14:46:14;10.88;;;7.10;;
66478;SDS011;53294;47.912;13.526;2023-01-08T14:48:46;9.43;;;5.78;;
66478;SDS011;53294;47.912;13.526;2023-01-08T14:51:14;11.38;;;7.18;;
66478;SDS011;53294;47.912;13.526;2023-01-08T14:53:48;14.50;;;7.28;;
66478;SDS011;53294;47.912;13.526;2023-01-08T14:56:24;11.35;;;6.88;;
66478;SDS011;53294;47.912;13.526;2023-01-08T14:58:57;11.57;;;6.60;;
66478;SDS011;53294;47.912;13.526;2023-01-08T15:01:25;12.25;;;7.10;;
66478;SDS011;53294;47.912;13.526;2023-01-08T15:04:05;11.95;;;7.70;;
66478;SDS011;53294;47.912;13.526;2023-01-08T15:06:45;10.35;;;7.75;;
66478;SDS011;53294;47.912;13.526;2023-01-08T15:09:31;13.68;;;8.60;;
66478;SDS011;53294;47.912;13.526;2023-01-08T15:12:01;12.45;;;8.45;;
66478;SDS011;53294;47.912;13.526;2023-01-08T15:14:32;14.98;;;8.95;;
66478;SDS011;53294;47.912;13.526;2023-01-08T15:17:09;21.60;;;11.25;;
66478;SDS011;53294;47.912;13.526;2023-01-08T15:19:41;20.60;;;12.02;;
66478;SDS011;53294;47.912;13.526;2023-01-08T15:22:16;19.40;;;11.50;;
66478;SDS011;53294;47.912;13.526;2023-01-08T15:24:51;19.67;;;10.82;;
66478;SDS011;53294;47.912;13.526;2023-01-08T15:27:23;19.85;;;11.10;;
66478;SDS011;53294;47.912;13.526;2023-01-08T15:29:51;14.98;;;10.70;;
66478;SDS011;53294;47.912;13.526;2023-01-08T15:32:31;15.77;;;10.02;;
66478;SDS011;53294;47.912;13.526;2023-01-08T15:35:00;15.95;;;9.63;;
66478;SDS011;53294;47.912;13.526;2023-01-08T15:37:27;16.17;;;10.07;;
66478;SDS011;53294;47.912;13.526;2023-01-08T15:39:55;21.60;;;14.50;;
66478;SDS011;53294;47.912;13.526;2023-01-08T15:42:31;19.27;;;11.73;;
66478;SDS011;53294;47.912;13.526;2023-01-08T15:45:18;15.52;;;10.32;;
66478;SDS011;53294;47.912;13.526;2023-01-08T15:47:46;14.45;;;9.25;;
66478;SDS011;53294;47.912;13.526;2023-01-08T15:50:13;15.18;;;10.40;;
66478;SDS011;53294;47.912;13.526;2023-01-08T15:52:41;14.60;;;9.13;;
66478;SDS011;53294;47.912;13.526;2023-01-08T15:55:12;38.80;;;18.08;;
66478;SDS011;53294;47.912;13.526;2023-01-08T15:57:45;26.17;;;14.35;;
66478;SDS011;53294;47.912;13.526;2023-01-08T16:00:12;20.27;;;11.80;;
66478;SDS011;53294;47.912;13.526;2023-01-08T16:02:44;17.17;;;11.00;;
66478;SDS011;53294;47.912;13.526;2023-01-08T16:05:13;57.50;;;25.80;;
66478;SDS011;53294;47.912;13.526;2023-01-08T16:07:42;22.48;;;13.00;;
66478;SDS011;53294;47.912;13.526;2023-01-08T16:10:11;19.45;;;12.00;;
66478;SDS011;53294;47.912;13.526;2023-01-08T16:12:39;16.15;;;10.73;;
66478;SDS011;53294;47.912;13.526;2023-01-08T16:15:06;17.50;;;11.15;;
66478;SDS011;53294;47.912;13.526;2023-01-08T16:17:34;15.63;;;9.77;;
66478;SDS011;53294;47.912;13.526;2023-01-08T16:20:04;15.35;;;9.65;;
66478;SDS011;53294;47.912;13.526;2023-01-08T16:22:32;14.45;;;10.20;;
66478;SDS011;53294;47.912;13.526;2023-01-08T16:24:59;16.23;;;11.18;;